Time;durP1;ratioP1;P1;durP2;ratioP2;P2;SDS_P1;SDS_P2;PMS_P1;PMS_P2;Temp;Humidity;BMP_temperature;BMP_pressure;BME280_temperature;BME280_humidity;BME280_pressure;Samples;Min_cycle;Max_cycle;Signal;HPM_P1;HPM_P2
2021/06/02 00:00:21;;;;;;;3.60;2.40;;;20.80;48.70;;;;;;5074251;28;20442;-73
2021/06/02 00:02:49;;;;;;;2.72;2.22;;;20.70;48.90;;;;;;5073111;28;20039;-74
2021/06/02 00:05:15;;;;;;;4.85;2.58;;;20.70;49.10;;;;;;5072965;28;20119;-73
2021/06/02 00:07:42;;;;;;;4.22;2.50;;;20.60;49.40;;;;;;5073018;28;20037;-74
2021/06/02 00:10:11;;;;;;;4.07;2.42;;;20.40;49.60;;;;;;5074291;28;20040;-74
2021/06/02 00:12:37;;;;;;;5.68;2.70;;;20.40;49.80;;;;;;5072799;28;20040;-73
2021/06/02 00:15:06;;;;;;;2.83;2.50;;;20.30;50.00;;;;;;5073118;28;20115;-74
2021/06/02 00:17:32;;;;;;;2.95;2.58;;;20.20;50.20;;;;;;5074159;28;20099;-73
2021/06/02 00:19:58;;;;;;;3.00;2.22;;;20.10;50.30;;;;;;5074017;28;20126;-73
2021/06/02 00:22:23;;;;;;;3.40;2.70;;;20.10;50.50;;;;;;5073908;28;20104;-74
2021/06/02 00:24:49;;;;;;;3.25;2.60;;;20.00;50.70;;;;;;5074011;28;20483;-74
2021/06/02 00:27:15;;;;;;;3.58;2.70;;;19.90;50.90;;;;;;5072958;28;20033;-74
2021/06/02 00:29:44;;;;;;;4.38;2.70;;;19.90;51.00;;;;;;5073821;28;20070;-74
2021/06/02 00:32:11;;;;;;;4.32;3.10;;;19.90;51.40;;;;;;5073834;28;20088;-74
2021/06/02 00:34:37;;;;;;;3.15;2.65;;;19.80;51.70;;;;;;5072566;28;20130;-74
2021/06/02 00:37:06;;;;;;;3.35;2.78;;;19.70;51.70;;;;;;5071682;28;20024;-74
2021/06/02 00:39:32;;;;;;;4.35;2.80;;;19.70;52.00;;;;;;5073748;28;20064;-74
2021/06/02 00:41:58;;;;;;;2.85;2.58;;;19.60;52.20;;;;;;5072282;28;20043;-73
2021/06/02 00:44:24;;;;;;;3.78;2.90;;;19.60;52.40;;;;;;5072242;28;20063;-74
2021/06/02 00:46:51;;;;;;;3.67;3.00;;;19.50;52.70;;;;;;5073334;28;20068;-74
2021/06/02 00:49:25;;;;;;;3.30;2.60;;;19.50;52.90;;;;;;5072069;28;20024;-74
2021/06/02 00:51:59;;;;;;;4.93;3.28;;;19.50;53.10;;;;;;5072239;28;20046;-74
2021/06/02 00:54:27;;;;;;;4.13;3.20;;;19.50;53.30;;;;;;5071865;28;20431;-74
2021/06/02 00:56:55;;;;;;;4.45;3.33;;;19.40;53.60;;;;;;5072005;28;20392;-74
2021/06/02 00:59:40;;;;;;;3.65;2.92;;;19.40;53.80;;;;;;5072048;28;20027;-73
2021/06/02 01:02:14;;;;;;;4.00;3.20;;;19.30;54.10;;;;;;5073440;28;20442;-74
2021/06/02 01:04:41;;;;;;;3.95;2.80;;;19.30;54.40;;;;;;5073351;28;20079;-73
2021/06/02 01:07:10;;;;;;;4.03;3.15;;;19.30;54.50;;;;;;5073038;28;20030;-73
2021/06/02 01:09:36;;;;;;;4.78;3.25;;;19.20;54.50;;;;;;5071829;28;20048;-73
2021/06/02 01:12:02;;;;;;;5.00;3.20;;;19.20;54.70;;;;;;5071949;28;20060;-74
2021/06/02 01:14:30;;;;;;;3.90;3.10;;;19.20;54.90;;;;;;5071768;28;20025;-73
2021/06/02 01:16:57;;;;;;;3.70;3.22;;;19.20;55.00;;;;;;5072205;28;20036;-73
2021/06/02 01:19:23;;;;;;;4.35;3.33;;;19.20;55.40;;;;;;5071639;28;20024;-73
2021/06/02 01:22:00;;;;;;;4.10;3.50;;;19.10;55.50;;;;;;5072961;28;20031;-73
2021/06/02 01:24:30;;;;;;;4.38;3.28;;;19.10;55.90;;;;;;5071658;28;20412;-74
2021/06/02 01:26:58;;;;;;;6.47;3.50;;;19.10;56.10;;;;;;5073114;28;20029;-73
2021/06/02 01:29:25;;;;;;;4.80;3.58;;;19.00;56.30;;;;;;5072873;28;20032;-74
2021/06/02 01:31:55;;;;;;;5.00;3.42;;;19.00;56.40;;;;;;5072982;28;20021;-73
2021/06/02 01:34:58;;;;;;;5.53;3.60;;;19.00;56.50;;;;;;5072621;28;20028;-74
2021/06/02 01:38:10;;;;;;;5.20;3.92;;;19.00;56.80;;;;;;5071313;28;20036;-75
2021/06/02 01:41:06;;;;;;;4.05;3.50;;;19.00;56.90;;;;;;5072807;28;20110;-74
2021/06/02 01:43:38;;;;;;;5.20;3.83;;;18.90;57.00;;;;;;5072695;28;20086;-74
2021/06/02 01:46:28;;;;;;;5.13;3.80;;;18.90;57.10;;;;;;5072689;28;20048;-74
2021/06/02 01:49:14;;;;;;;4.32;3.55;;;18.90;57.60;;;;;;5071326;28;20032;-74
2021/06/02 01:52:26;;;;;;;5.07;3.22;;;18.90;57.70;;;;;;5071318;28;20056;-74
2021/06/02 01:55:04;;;;;;;5.18;3.53;;;18.90;57.80;;;;;;5071454;28;20090;-75
2021/06/02 01:57:57;;;;;;;6.78;3.78;;;18.90;57.70;;;;;;5072603;28;20542;-74
2021/06/02 02:00:37;;;;;;;5.55;3.28;;;18.90;57.70;;;;;;5071499;28;20115;-74
2021/06/02 02:03:28;;;;;;;4.25;3.33;;;18.90;57.70;;;;;;5071632;28;20036;-74
2021/06/02 02:06:12;;;;;;;4.18;3.65;;;19.00;58.00;;;;;;5071777;28;20047;-75
2021/06/02 02:12:15;;;;;;;3.35;2.90;;;19.00;58.10;;;;;;5072682;28;20055;-74
2021/06/02 02:15:00;;;;;;;3.95;3.35;;;19.00;57.80;;;;;;5072482;28;20029;-75
2021/06/02 02:18:07;;;;;;;4.50;3.20;;;19.00;57.90;;;;;;5071089;28;20434;-74
2021/06/02 02:20:41;;;;;;;3.67;3.25;;;19.10;58.00;;;;;;5072368;28;20060;-75
2021/06/02 02:24:04;;;;;;;4.63;3.63;;;19.00;57.80;;;;;;5071033;28;20029;-74
2021/06/02 02:26:36;;;;;;;4.32;3.30;;;19.10;58.00;;;;;;4974629;28;20042;-74
2021/06/02 02:29:22;;;;;;;5.80;3.33;;;19.00;57.80;;;;;;4974624;28;20489;-74
2021/06/02 02:32:12;;;;;;;4.55;3.22;;;19.00;58.00;;;;;;4990856;28;20050;-74
2021/06/02 02:35:07;;;;;;;3.30;3.00;;;19.00;58.00;;;;;;4974686;28;20137;-74
2021/06/02 02:37:47;;;;;;;3.97;3.08;;;19.00;58.00;;;;;;4974687;28;20528;-74
2021/06/02 02:40:36;;;;;;;6.53;3.17;;;19.10;58.00;;;;;;4974499;28;20545;-74
2021/06/02 02:43:02;;;;;;;3.72;3.17;;;19.00;58.10;;;;;;4974469;28;20042;-74
2021/06/02 02:45:35;;;;;;;3.78;3.25;;;18.90;58.00;;;;;;4974308;28;20119;-73
2021/06/02 02:48:22;;;;;;;5.32;3.08;;;18.90;58.20;;;;;;4990838;28;20105;-74
2021/06/02 02:51:01;;;;;;;4.97;3.60;;;18.90;58.40;;;;;;4990744;28;20050;-74
2021/06/02 02:53:48;;;;;;;5.45;3.30;;;18.90;58.50;;;;;;4990680;28;20031;-74
2021/06/02 02:56:24;;;;;;;4.97;3.15;;;18.90;58.50;;;;;;4997094;28;20057;-74
2021/06/02 02:59:04;;;;;;;4.57;3.80;;;18.90;58.50;;;;;;5071932;28;20063;-74
2021/06/02 03:01:47;;;;;;;3.88;3.42;;;18.90;58.50;;;;;;5074053;28;20075;-74
2021/06/02 03:04:13;;;;;;;5.53;3.38;;;18.80;58.50;;;;;;5074280;28;20048;-73
2021/06/02 03:06:41;;;;;;;4.57;3.30;;;18.80;58.50;;;;;;5074419;28;20039;-73
2021/06/02 03:09:29;;;;;;;4.65;3.42;;;18.80;58.60;;;;;;5074037;28;20016;-74
2021/06/02 03:12:24;;;;;;;3.90;3.20;;;18.80;58.70;;;;;;5073942;28;20032;-74
2021/06/02 03:15:03;;;;;;;6.05;3.63;;;18.80;58.80;;;;;;5075322;28;20376;-74
2021/06/02 03:20:55;;;;;;;6.07;3.55;;;18.70;59.00;;;;;;5075431;28;20036;-74
2021/06/02 03:23:59;;;;;;;4.18;3.78;;;18.70;59.00;;;;;;5073953;28;20028;-73
2021/06/02 03:26:56;;;;;;;3.90;3.40;;;18.60;59.20;;;;;;5075205;28;20075;-73
2021/06/02 03:33:21;;;;;;;4.53;3.50;;;18.60;59.30;;;;;;5075353;28;20039;-73
2021/06/02 03:36:02;;;;;;;4.03;3.60;;;18.60;59.30;;;;;;5073878;28;20029;-74
2021/06/02 03:39:04;;;;;;;5.88;3.47;;;18.60;59.40;;;;;;5073547;28;20301;-74
2021/06/02 03:41:39;;;;;;;4.40;3.40;;;18.60;59.50;;;;;;5074744;28;20036;-74
2021/06/02 03:44:27;;;;;;;4.30;3.85;;;18.60;59.50;;;;;;5073428;28;20036;-73
2021/06/02 03:47:14;;;;;;;4.28;3.50;;;18.60;59.60;;;;;;5074691;28;20048;-74
2021/06/02 03:49:49;;;;;;;5.43;4.25;;;18.60;59.60;;;;;;5074764;28;20024;-73
2021/06/02 03:52:35;;;;;;;5.13;3.97;;;18.60;59.80;;;;;;5073244;28;20132;-73
2021/06/02 03:55:12;;;;;;;6.15;4.10;;;18.60;59.90;;;;;;5072706;28;20431;-73
2021/06/02 03:57:57;;;;;;;4.10;3.70;;;18.50;60.00;;;;;;5073365;28;20028;-74
2021/06/02 04:00:32;;;;;;;5.60;3.95;;;18.60;60.10;;;;;;5074549;28;20427;-73
2021/06/02 04:03:01;;;;;;;4.85;4.03;;;18.50;60.10;;;;;;5073214;28;20029;-74
2021/06/02 04:06:01;;;;;;;6.40;3.97;;;18.50;60.30;;;;;;5074523;28;20052;-74
2021/06/02 04:09:01;;;;;;;4.10;3.70;;;18.50;60.60;;;;;;5073380;28;20034;-73
2021/06/02 04:11:55;;;;;;;5.35;3.83;;;18.50;60.60;;;;;;5071930;28;20514;-74
2021/06/02 04:14:35;;;;;;;4.57;4.10;;;18.50;60.80;;;;;;5074259;28;20054;-74
2021/06/02 04:17:02;;;;;;;6.85;4.75;;;18.50;60.80;;;;;;5073017;28;20032;-74
2021/06/02 04:19:32;;;;;;;7.18;3.85;;;18.50;60.80;;;;;;5072850;28;20030;-74
2021/06/02 04:22:05;;;;;;;5.80;4.60;;;18.50;61.00;;;;;;5074065;28;20492;-73
2021/06/02 04:24:33;;;;;;;4.63;4.15;;;18.50;61.10;;;;;;5072770;28;20043;-74
2021/06/02 04:27:00;;;;;;;7.30;4.38;;;18.50;61.00;;;;;;5074088;28;20491;-73
2021/06/02 04:29:27;;;;;;;7.32;4.45;;;18.60;61.20;;;;;;5072662;28;20029;-73
2021/06/02 04:32:05;;;;;;;7.55;4.40;;;18.60;61.20;;;;;;5074035;28;20110;-73
2021/06/02 04:34:31;;;;;;;7.57;4.88;;;18.60;61.40;;;;;;5072855;28;20028;-73
2021/06/02 04:36:59;;;;;;;5.55;4.35;;;18.60;61.30;;;;;;5073878;28;20036;-73
2021/06/02 04:39:25;;;;;;;5.10;4.35;;;18.60;61.40;;;;;;5072433;28;20499;-74
2021/06/02 04:41:57;;;;;;;5.82;4.28;;;18.60;61.50;;;;;;5072538;28;20487;-74
2021/06/02 04:44:24;;;;;;;4.72;3.80;;;18.60;61.60;;;;;;5072358;28;20037;-73
2021/06/02 04:46:50;;;;;;;5.00;3.85;;;18.60;61.60;;;;;;5073592;28;20044;-73
2021/06/02 04:49:16;;;;;;;4.85;4.05;;;18.60;61.60;;;;;;5072633;28;20028;-74
2021/06/02 04:51:59;;;;;;;4.88;4.38;;;18.60;61.60;;;;;;5073534;28;20388;-73
2021/06/02 04:54:47;;;;;;;4.40;4.00;;;18.60;61.60;;;;;;5072104;28;20488;-73
2021/06/02 04:57:27;;;;;;;4.30;3.83;;;18.60;61.60;;;;;;5073500;28;20028;-73
2021/06/02 05:00:29;;;;;;;5.30;4.25;;;18.70;61.60;;;;;;5073353;28;20032;-73
2021/06/02 05:03:28;;;;;;;7.25;3.90;;;18.60;61.60;;;;;;5072046;28;20082;-73
2021/06/02 05:06:13;;;;;;;6.35;4.13;;;18.70;61.60;;;;;;5073323;28;20519;-73
2021/06/02 05:08:41;;;;;;;6.90;4.18;;;18.70;61.40;;;;;;5073117;28;20071;-74
2021/06/02 05:11:10;;;;;;;4.28;3.80;;;18.70;61.40;;;;;;5073297;28;20024;-74
2021/06/02 05:14:30;;;;;;;6.90;4.55;;;18.70;61.50;;;;;;5071912;28;20387;-73
2021/06/02 05:17:17;;;;;;;4.43;3.90;;;18.70;61.50;;;;;;4991997;28;20489;-74
2021/06/02 05:20:02;;;;;;;6.07;4.15;;;18.80;61.40;;;;;;4991667;28;20030;-73
2021/06/02 05:23:05;;;;;;;6.90;3.85;;;18.80;61.30;;;;;;4974910;28;20039;-73
2021/06/02 05:26:00;;;;;;;4.72;4.05;;;18.80;61.40;;;;;;4975257;28;20429;-73
2021/06/02 05:28:44;;;;;;;5.72;4.10;;;18.80;61.20;;;;;;4974988;28;20530;-73
2021/06/02 05:31:29;;;;;;;5.40;3.88;;;18.90;61.20;;;;;;4991552;28;20044;-74
2021/06/02 05:34:18;;;;;;;5.90;3.83;;;18.90;61.30;;;;;;4991532;28;20185;-74
2021/06/02 05:37:19;;;;;;;4.18;3.75;;;18.90;61.20;;;;;;4975207;28;20088;-73
2021/06/02 05:39:45;;;;;;;5.68;3.80;;;19.00;61.20;;;;;;4955741;28;20042;-74
2021/06/02 05:42:22;;;;;;;5.35;3.97;;;19.00;61.00;;;;;;4974957;28;20049;-74
2021/06/02 05:45:00;;;;;;;6.05;4.00;;;19.00;60.90;;;;;;4974953;28;20552;-74
2021/06/02 05:47:56;;;;;;;4.68;3.92;;;19.10;60.80;;;;;;4974956;28;20474;-73
2021/06/02 05:50:49;;;;;;;5.03;4.05;;;19.10;60.80;;;;;;4975061;28;20034;-75
2021/06/02 05:53:40;;;;;;;3.97;3.58;;;19.20;60.80;;;;;;5035436;28;20037;-75
2021/06/02 05:56:27;;;;;;;4.80;3.90;;;19.20;60.60;;;;;;5073665;28;20035;-74
2021/06/02 05:59:16;;;;;;;4.20;3.80;;;19.20;60.50;;;;;;5071808;28;20111;-75
2021/06/02 06:02:30;;;;;;;5.35;4.13;;;19.30;60.50;;;;;;5072382;28;20028;-75
2021/06/02 06:05:16;;;;;;;5.65;4.22;;;19.30;60.40;;;;;;4993456;28;20124;-75
2021/06/02 06:07:54;;;;;;;3.78;3.42;;;19.40;60.30;;;;;;4974944;28;20494;-72
2021/06/02 06:10:45;;;;;;;4.57;3.90;;;19.40;60.20;;;;;;4991272;28;20498;-72
2021/06/02 06:13:38;;;;;;;4.57;3.80;;;19.60;60.10;;;;;;4991321;28;20037;-72
2021/06/02 06:16:40;;;;;;;4.45;3.78;;;19.60;59.90;;;;;;4991229;28;20074;-72
2021/06/02 06:19:30;;;;;;;4.88;3.80;;;19.70;59.80;;;;;;4991304;28;20042;-74
2021/06/02 06:25:54;;;;;;;5.00;3.65;;;19.80;59.50;;;;;;4972185;28;20037;-72
2021/06/02 06:28:22;;;;;;;5.75;3.97;;;19.80;59.30;;;;;;4955281;28;20532;-73
2021/06/02 06:30:50;;;;;;;5.43;4.50;;;19.90;59.30;;;;;;4971996;28;20027;-74
2021/06/02 06:33:18;;;;;;;4.63;4.05;;;20.00;59.20;;;;;;4971871;28;20035;-74
2021/06/02 06:35:47;;;;;;;5.38;4.15;;;20.00;59.10;;;;;;4977399;28;20117;-74
2021/06/02 06:38:22;;;;;;;5.45;4.80;;;20.00;59.70;;;;;;4978518;28;20081;-74
2021/06/02 06:40:53;;;;;;;6.22;4.50;;;20.10;59.10;;;;;;5002760;28;20036;-74
2021/06/02 06:46:42;;;;;;;5.03;4.50;;;20.20;59.00;;;;;;5075180;28;20094;-75
2021/06/02 06:49:11;;;;;;;4.28;3.88;;;20.20;58.80;;;;;;5077566;28;20024;-74
2021/06/02 06:51:38;;;;;;;5.28;3.72;;;20.30;58.80;;;;;;5075819;28;20108;-74
2021/06/02 06:54:09;;;;;;;5.00;4.00;;;20.40;58.70;;;;;;5076595;28;20039;-74
2021/06/02 06:56:35;;;;;;;5.05;4.35;;;20.40;58.60;;;;;;5074587;28;20055;-74
2021/06/02 06:59:02;;;;;;;5.03;4.13;;;20.40;58.50;;;;;;5075959;28;20526;-74
2021/06/02 07:01:28;;;;;;;6.20;3.92;;;20.40;58.30;;;;;;5074060;28;20072;-74
2021/06/02 07:03:55;;;;;;;5.90;4.53;;;20.50;58.30;;;;;;5075843;28;20012;-74
2021/06/02 07:06:21;;;;;;;4.88;3.97;;;20.50;58.20;;;;;;5074230;28;20028;-74
2021/06/02 07:08:49;;;;;;;4.50;3.88;;;20.50;58.20;;;;;;5074182;28;20025;-74
2021/06/02 07:11:17;;;;;;;4.32;3.90;;;20.60;58.20;;;;;;5074120;28;20028;-74
2021/06/02 07:13:45;;;;;;;5.22;4.43;;;20.60;58.10;;;;;;5074184;28;20032;-74
2021/06/02 07:16:12;;;;;;;7.05;4.57;;;20.70;58.00;;;;;;5074026;28;20097;-74
2021/06/02 07:18:41;;;;;;;6.15;5.00;;;20.70;57.90;;;;;;5073963;28;20035;-74
2021/06/02 07:21:08;;;;;;;5.43;4.35;;;20.70;57.90;;;;;;5075407;28;20112;-72
2021/06/02 07:23:34;;;;;;;6.15;4.68;;;20.70;58.00;;;;;;5075403;28;20509;-72
2021/06/02 07:26:00;;;;;;;6.47;4.18;;;20.70;58.00;;;;;;5073963;28;20036;-72
2021/06/02 07:28:43;;;;;;;4.95;4.13;;;20.70;57.90;;;;;;5074071;28;20021;-72
2021/06/02 07:31:10;;;;;;;5.07;4.22;;;20.80;57.90;;;;;;5075438;28;20426;-73
2021/06/02 07:33:36;;;;;;;5.50;3.90;;;20.90;57.80;;;;;;5075131;28;20024;-72
2021/06/02 07:36:04;;;;;;;4.95;3.67;;;20.90;57.70;;;;;;5073931;28;20028;-72
2021/06/02 07:38:30;;;;;;;4.70;4.20;;;21.00;57.50;;;;;;5073896;28;20086;-72
2021/06/02 07:40:56;;;;;;;4.32;3.90;;;21.00;57.40;;;;;;5073787;28;20029;-72
2021/06/02 07:43:22;;;;;;;4.20;3.70;;;21.10;57.30;;;;;;5073617;28;20052;-72
2021/06/02 07:45:48;;;;;;;4.78;4.00;;;21.20;57.30;;;;;;5074613;28;20039;-72
2021/06/02 07:48:13;;;;;;;4.78;4.25;;;21.20;57.20;;;;;;5074891;28;20024;-72
2021/06/02 07:50:40;;;;;;;5.13;4.40;;;21.20;57.10;;;;;;5073681;28;20535;-72
2021/06/02 07:53:06;;;;;;;5.93;4.70;;;21.30;56.90;;;;;;5073549;28;20040;-72
2021/06/02 07:55:32;;;;;;;7.07;4.50;;;21.40;56.80;;;;;;5073514;28;20028;-72
2021/06/02 07:57:58;;;;;;;6.88;4.78;;;21.40;56.80;;;;;;5074711;28;20130;-72
2021/06/02 08:00:24;;;;;;;5.55;4.32;;;21.40;56.80;;;;;;5073445;28;20028;-72
2021/06/02 08:02:49;;;;;;;5.85;3.92;;;21.40;56.80;;;;;;5074856;28;20035;-72
2021/06/02 08:05:15;;;;;;;5.20;4.03;;;21.50;56.80;;;;;;5073380;28;20029;-72
2021/06/02 08:07:46;;;;;;;4.72;3.70;;;21.60;56.70;;;;;;5074583;28;20028;-72
2021/06/02 08:10:14;;;;;;;4.47;3.95;;;21.60;56.60;;;;;;5074338;28;20032;-71
2021/06/02 08:12:40;;;;;;;5.53;4.10;;;21.70;56.40;;;;;;5074297;28;20032;-71
2021/06/02 08:15:08;;;;;;;5.22;3.83;;;21.80;56.40;;;;;;5074404;28;20019;-72
2021/06/02 08:17:35;;;;;;;5.03;4.00;;;21.90;56.30;;;;;;5074316;28;20379;-71
2021/06/02 08:20:00;;;;;;;6.50;4.72;;;21.90;56.20;;;;;;5073241;28;20468;-72
2021/06/02 08:22:26;;;;;;;5.65;4.65;;;22.00;56.00;;;;;;5072775;28;20086;-72
2021/06/02 08:24:52;;;;;;;7.32;4.55;;;22.00;55.90;;;;;;5074339;28;20491;-72
2021/06/02 08:27:17;;;;;;;5.00;4.30;;;22.00;55.80;;;;;;5074019;28;20032;-72
2021/06/02 08:29:43;;;;;;;5.13;4.38;;;22.10;55.80;;;;;;5074227;28;20032;-73
2021/06/02 08:32:10;;;;;;;4.78;4.25;;;22.20;55.80;;;;;;5074120;28;20099;-73
2021/06/02 08:34:36;;;;;;;6.82;4.18;;;22.30;55.70;;;;;;5072527;28;20109;-75
2021/06/02 08:37:03;;;;;;;4.70;4.20;;;22.30;55.60;;;;;;5073808;28;20171;-76
2021/06/02 08:39:29;;;;;;;4.57;4.13;;;22.40;55.30;;;;;;5072253;28;20479;-76
2021/06/02 08:41:55;;;;;;;6.35;4.00;;;22.50;55.20;;;;;;5072032;28;20019;-76
2021/06/02 08:44:22;;;;;;;4.85;4.35;;;22.60;55.00;;;;;;5073402;28;20099;-75
2021/06/02 08:46:47;;;;;;;6.72;4.50;;;22.70;54.90;;;;;;5071761;28;20040;-75
2021/06/02 08:49:15;;;;;;;5.55;3.97;;;22.80;54.70;;;;;;5071624;28;20032;-74
2021/06/02 08:51:41;;;;;;;4.50;3.78;;;22.90;54.40;;;;;;5072042;28;20384;-75
2021/06/02 08:54:07;;;;;;;16.25;4.97;;;23.00;53.90;;;;;;5072186;28;20448;-75
2021/06/02 08:56:41;;;;;;;6.63;3.95;;;23.10;53.70;;;;;;5071972;28;20052;-74
2021/06/02 08:59:07;;;;;;;3.92;3.25;;;23.10;53.50;;;;;;5071620;28;20021;-74
2021/06/02 09:01:36;;;;;;;4.43;3.83;;;23.20;53.50;;;;;;5072999;28;20075;-74
2021/06/02 09:04:12;;;;;;;6.25;3.80;;;23.30;53.30;;;;;;5071617;28;20020;-76
2021/06/02 09:06:46;;;;;;;4.20;3.28;;;23.40;53.00;;;;;;5071679;28;20127;-74
2021/06/02 09:09:14;;;;;;;3.70;3.08;;;23.50;52.70;;;;;;5073047;28;20096;-74
2021/06/02 09:11:51;;;;;;;3.30;3.00;;;23.50;52.60;;;;;;5072822;28;20021;-74
2021/06/02 09:14:23;;;;;;;5.30;3.40;;;23.60;52.30;;;;;;5072883;28;20396;-74
2021/06/02 09:17:12;;;;;;;4.07;3.63;;;23.60;51.90;;;;;;5071712;28;20020;-74
2021/06/02 09:19:40;;;;;;;4.30;3.20;;;23.80;51.70;;;;;;5071558;28;20115;-75
2021/06/02 09:22:08;;;;;;;5.30;3.75;;;23.80;51.40;;;;;;5071464;28;20040;-75
2021/06/02 09:24:50;;;;;;;3.88;3.47;;;23.90;51.30;;;;;;5071212;28;20388;-75
2021/06/02 09:27:19;;;;;;;5.53;4.10;;;23.90;51.40;;;;;;5072701;28;20083;-75
2021/06/02 09:29:55;;;;;;;6.20;4.30;;;24.00;51.30;;;;;;5072844;28;20029;-76
2021/06/02 09:32:23;;;;;;;5.50;3.88;;;24.00;51.20;;;;;;5071286;28;20028;-75
2021/06/02 09:34:59;;;;;;;4.75;3.30;;;24.00;51.00;;;;;;5072591;28;20078;-75
2021/06/02 09:37:26;;;;;;;3.65;3.35;;;24.00;50.70;;;;;;5071226;28;20025;-74
2021/06/02 09:39:51;;;;;;;3.70;2.90;;;24.20;50.30;;;;;;5071222;28;20020;-76
2021/06/02 09:42:28;;;;;;;5.53;3.35;;;24.20;50.10;;;;;;5050223;28;20090;-76
2021/06/02 09:45:06;;;;;;;4.68;3.30;;;24.20;50.00;;;;;;5033916;28;20037;-77
2021/06/02 09:47:55;;;;;;;4.70;2.80;;;24.30;49.60;;;;;;5050338;28;20049;-77
2021/06/02 09:50:32;;;;;;;3.65;2.90;;;24.40;49.40;;;;;;5050741;28;20033;-76
2021/06/02 09:53:01;;;;;;;4.85;3.38;;;24.50;49.50;;;;;;5033845;28;20091;-76
2021/06/02 09:55:44;;;;;;;3.10;2.85;;;24.50;49.50;;;;;;5050658;28;20021;-77
2021/06/02 09:58:13;;;;;;;4.45;3.00;;;24.60;49.30;;;;;;5033619;28;20044;-77
2021/06/02 10:00:42;;;;;;;3.63;2.80;;;24.70;49.20;;;;;;5050321;28;20060;-74
2021/06/02 10:03:16;;;;;;;3.58;2.90;;;24.70;49.00;;;;;;5050262;28;20229;-74
2021/06/02 10:05:46;;;;;;;4.03;3.40;;;24.80;48.90;;;;;;5033617;28;20485;-74
2021/06/02 10:08:23;;;;;;;4.85;3.40;;;24.90;48.80;;;;;;5033672;28;20052;-74
2021/06/02 10:10:51;;;;;;;3.33;2.75;;;24.90;49.10;;;;;;5036488;28;20020;-74
2021/06/02 10:13:19;;;;;;;4.38;3.08;;;25.00;48.30;;;;;;5065597;28;20051;-75
2021/06/02 10:15:48;;;;;;;3.50;2.55;;;25.10;48.10;;;;;;5075076;28;20044;-74
2021/06/02 10:18:26;;;;;;;4.18;3.08;;;25.10;47.70;;;;;;5075019;28;20016;-74
2021/06/02 10:21:06;;;;;;;4.57;2.88;;;25.20;47.20;;;;;;5075050;28;20082;-75
2021/06/02 10:23:40;;;;;;;2.83;2.30;;;25.20;47.10;;;;;;5074813;28;20051;-74
2021/06/02 10:26:07;;;;;;;2.67;2.30;;;25.30;47.00;;;;;;5076297;28;20365;-73
2021/06/02 10:28:33;;;;;;;2.50;2.30;;;25.40;47.00;;;;;;5076305;28;20106;-73
2021/06/02 10:34:24;;;;;;;2.88;2.20;;;25.60;46.40;;;;;;5076756;28;20443;-75
2021/06/02 10:36:50;;;;;;;8.55;2.28;;;25.60;46.20;;;;;;5075742;28;20467;-75
2021/06/02 10:39:18;;;;;;;2.70;2.13;;;25.80;46.10;;;;;;5076150;28;20095;-73
2021/06/02 10:41:52;;;;;;;5.15;2.40;;;25.80;45.80;;;;;;5074766;28;20383;-74
2021/06/02 10:44:22;;;;;;;2.97;2.10;;;25.90;45.40;;;;;;5075967;28;20383;-74
2021/06/02 10:46:50;;;;;;;4.22;1.92;;;25.90;45.30;;;;;;5075901;28;20047;-74
2021/06/02 10:49:26;;;;;;;3.30;2.00;;;26.00;45.30;;;;;;5074525;28;20023;-78
2021/06/02 10:51:52;;;;;;;2.97;2.17;;;26.10;44.90;;;;;;5076361;28;20103;-74
2021/06/02 10:54:21;;;;;;;2.75;2.15;;;26.20;44.80;;;;;;5075588;28;20099;-73
2021/06/02 10:56:56;;;;;;;2.30;2.10;;;26.30;44.20;;;;;;5074213;28;20032;-73
2021/06/02 10:59:26;;;;;;;4.63;2.15;;;26.30;43.70;;;;;;5074160;28;20025;-73
2021/06/02 11:02:30;;;;;;;2.97;2.03;;;26.40;43.70;;;;;;5074020;28;20369;-73
2021/06/02 11:04:56;;;;;;;4.03;2.10;;;26.50;44.20;;;;;;5059392;28;20043;-73
2021/06/02 11:07:23;;;;;;;2.28;1.95;;;26.60;43.40;;;;;;5075389;28;20472;-72
2021/06/02 11:10:00;;;;;;;2.03;1.67;;;26.60;42.90;;;;;;5074221;28;20494;-73
2021/06/02 11:12:45;;;;;;;2.67;2.03;;;26.70;42.50;;;;;;5073967;28;20025;-73
2021/06/02 11:15:23;;;;;;;2.45;2.00;;;26.70;42.30;;;;;;5074002;28;20116;-72
2021/06/02 11:18:16;;;;;;;2.53;1.90;;;26.80;42.20;;;;;;5075280;28;20020;-73
2021/06/02 11:20:47;;;;;;;2.50;1.88;;;27.00;42.00;;;;;;5074584;28;20451;-73
2021/06/02 11:23:20;;;;;;;1.63;1.52;;;27.10;41.90;;;;;;5073924;28;20033;-73
2021/06/02 11:25:48;;;;;;;4.57;1.70;;;27.10;41.30;;;;;;5075002;28;20024;-73
2021/06/02 11:28:43;;;;;;;2.38;1.80;;;27.20;41.00;;;;;;5075132;28;20031;-73
2021/06/02 11:31:31;;;;;;;1.40;1.30;;;27.20;40.70;;;;;;5073698;28;20035;-73
2021/06/02 11:34:28;;;;;;;2.45;1.92;;;27.30;40.80;;;;;;5073559;28;20029;-73
2021/06/02 11:37:16;;;;;;;1.92;1.70;;;27.40;40.60;;;;;;5073982;28;20017;-73
2021/06/02 11:39:43;;;;;;;2.13;1.35;;;27.50;40.00;;;;;;5073603;28;20024;-74
2021/06/02 11:42:25;;;;;;;1.52;1.42;;;27.50;39.60;;;;;;5073465;28;20099;-74
2021/06/02 11:45:00;;;;;;;2.40;1.35;;;27.60;39.30;;;;;;5074813;28;20383;-74
2021/06/02 11:47:26;;;;;;;1.50;1.40;;;27.70;39.30;;;;;;5074549;28;20033;-75
2021/06/02 11:50:01;;;;;;;1.60;1.50;;;27.80;38.90;;;;;;5073154;28;20024;-74
2021/06/02 11:52:27;;;;;;;2.00;1.40;;;27.90;38.90;;;;;;5074623;28;20020;-74
2021/06/02 11:54:57;;;;;;;1.75;1.52;;;28.00;38.70;;;;;;5073251;28;20118;-75
2021/06/02 11:57:26;;;;;;;1.50;1.40;;;28.10;38.40;;;;;;5073095;28;20024;-74
2021/06/02 11:59:52;;;;;;;2.00;1.58;;;28.20;38.30;;;;;;5074223;28;20027;-76
2021/06/02 12:02:18;;;;;;;4.82;1.65;;;28.30;38.10;;;;;;5074162;28;20028;-74
2021/06/02 12:04:44;;;;;;;1.63;1.52;;;28.30;37.90;;;;;;5072964;28;20079;-74
2021/06/02 12:07:27;;;;;;;1.70;1.60;;;28.40;37.70;;;;;;5072946;28;20468;-74
2021/06/02 12:09:57;;;;;;;3.17;1.60;;;28.40;37.30;;;;;;5073036;28;20025;-74
2021/06/02 12:12:37;;;;;;;1.58;1.48;;;28.50;37.40;;;;;;5074446;28;20021;-74
2021/06/02 12:15:03;;;;;;;2.08;1.50;;;28.60;37.30;;;;;;5074179;28;20068;-73
2021/06/02 12:17:31;;;;;;;3.10;1.70;;;28.70;37.20;;;;;;5074151;28;20047;-72
2021/06/02 12:19:58;;;;;;;3.35;1.65;;;28.80;37.20;;;;;;5074099;28;20020;-72
2021/06/02 12:22:25;;;;;;;2.63;1.50;;;28.90;37.10;;;;;;5072669;28;20484;-73
2021/06/02 12:25:19;;;;;;;2.83;1.67;;;29.00;37.10;;;;;;5073851;28;20360;-73
2021/06/02 12:27:57;;;;;;;2.15;1.70;;;29.10;36.80;;;;;;5072574;28;20396;-73
2021/06/02 12:30:22;;;;;;;1.63;1.52;;;29.20;36.70;;;;;;5073987;28;20476;-73
2021/06/02 12:32:48;;;;;;;1.73;1.63;;;29.20;36.60;;;;;;5071692;28;20032;-73
2021/06/02 12:35:29;;;;;;;3.25;1.60;;;29.30;36.40;;;;;;5072569;28;20023;-74
2021/06/02 12:38:17;;;;;;;1.98;1.60;;;29.40;36.30;;;;;;5073617;28;20031;-73
2021/06/02 12:40:44;;;;;;;3.08;1.80;;;29.50;36.20;;;;;;5072475;28;20372;-73
2021/06/02 12:43:20;;;;;;;3.25;1.90;;;29.50;36.20;;;;;;5072288;28;20024;-73
2021/06/02 12:45:48;;;;;;;1.70;1.60;;;29.60;36.00;;;;;;5072088;28;20029;-74
2021/06/02 12:48:17;;;;;;;2.35;1.65;;;29.70;36.00;;;;;;5072576;28;20048;-74
2021/06/02 12:50:43;;;;;;;2.33;1.50;;;29.80;35.80;;;;;;5071877;28;20082;-74
2021/06/02 12:53:13;;;;;;;1.95;1.75;;;29.80;35.70;;;;;;5073379;28;20032;-74
2021/06/02 12:55:44;;;;;;;2.40;1.80;;;29.90;35.60;;;;;;5073258;28;20503;-74
2021/06/02 12:58:13;;;;;;;3.00;1.75;;;29.90;35.80;;;;;;5071901;28;20012;-74
2021/06/02 13:00:41;;;;;;;2.20;1.73;;;29.90;35.80;;;;;;5071598;28;20021;-74
2021/06/02 13:03:07;;;;;;;2.47;1.65;;;30.00;35.90;;;;;;5071897;28;20020;-74
2021/06/02 13:05:35;;;;;;;2.03;1.60;;;30.00;35.50;;;;;;5072964;28;20036;-74
2021/06/02 13:08:09;;;;;;;1.70;1.60;;;30.10;35.50;;;;;;5071922;28;20024;-74
2021/06/02 13:10:36;;;;;;;2.28;1.50;;;30.20;35.20;;;;;;5073300;28;20056;-73
2021/06/02 13:13:04;;;;;;;2.65;1.73;;;30.40;35.30;;;;;;5073299;28;20082;-73
2021/06/02 13:15:32;;;;;;;2.63;2.00;;;30.50;35.80;;;;;;5072912;28;20345;-73
2021/06/02 13:17:59;;;;;;;1.85;1.45;;;30.60;34.90;;;;;;5071291;28;20025;-74
2021/06/02 13:20:40;;;;;;;2.00;1.80;;;30.60;34.80;;;;;;5071899;28;20027;-73
2021/06/02 13:23:36;;;;;;;2.25;1.90;;;30.80;34.70;;;;;;5071708;28;20491;-74
2021/06/02 13:26:10;;;;;;;2.05;1.63;;;30.80;34.60;;;;;;5065938;28;20028;-74
2021/06/02 13:28:43;;;;;;;2.10;1.75;;;30.90;34.90;;;;;;5071435;28;20021;-73
2021/06/02 13:31:10;;;;;;;1.80;1.70;;;31.10;34.80;;;;;;5071532;28;20103;-73
2021/06/02 13:33:47;;;;;;;2.63;1.98;;;31.10;34.60;;;;;;5072763;28;20035;-74
2021/06/02 13:36:15;;;;;;;1.80;1.70;;;31.10;34.30;;;;;;5071301;28;20031;-73
2021/06/02 13:38:41;;;;;;;1.80;1.70;;;31.20;34.50;;;;;;5072923;28;20108;-73
2021/06/02 13:41:22;;;;;;;2.38;1.70;;;31.20;34.40;;;;;;5071374;28;20112;-74
2021/06/02 13:43:48;;;;;;;2.97;1.70;;;31.40;34.30;;;;;;5071125;28;20020;-73
2021/06/02 13:46:21;;;;;;;1.67;1.58;;;31.40;34.20;;;;;;5070977;28;20037;-74
2021/06/02 13:48:47;;;;;;;3.90;1.80;;;31.50;34.10;;;;;;5070994;28;20502;-74